createdAt,value
2018-06-15T00:01:13.637Z,17.53
2018-06-15T00:03:41.221Z,18.37
2018-06-15T00:06:08.831Z,17.93
2018-06-15T00:08:37.175Z,17.33
2018-06-15T00:11:04.752Z,17.40
2018-06-15T00:13:32.903Z,21.67
2018-06-15T00:16:00.472Z,17.33
2018-06-15T00:18:28.045Z,16.70
2018-06-15T00:20:55.652Z,21.17
2018-06-15T00:23:23.224Z,18.03
2018-06-15T00:25:50.792Z,16.53
2018-06-15T00:28:18.430Z,16.30
2018-06-15T00:30:45.989Z,15.93
2018-06-15T00:33:13.554Z,17.33
2018-06-15T00:35:41.173Z,17.00
2018-06-15T00:38:08.740Z,17.00
2018-06-15T00:40:36.305Z,17.33
2018-06-15T00:43:04.674Z,17.17
2018-06-15T00:45:32.239Z,17.90
2018-06-15T00:47:59.908Z,16.70
2018-06-15T00:50:27.476Z,16.97
2018-06-15T00:52:56.069Z,16.60
2018-06-15T00:55:23.578Z,17.30
2018-06-15T00:57:51.928Z,16.33
2018-06-15T01:00:19.501Z,17.23
2018-06-15T01:02:47.067Z,16.87
2018-06-15T01:05:14.669Z,16.33
2018-06-15T01:07:42.250Z,16.80
2018-06-15T01:10:09.820Z,21.12
2018-06-15T01:12:38.189Z,18.63
2018-06-15T01:15:06.610Z,16.93
2018-06-15T01:17:34.181Z,16.80
2018-06-15T01:20:02.273Z,17.03
2018-06-15T01:22:29.844Z,17.07
2018-06-15T01:24:57.412Z,16.00
2018-06-15T01:27:25.013Z,16.47
2018-06-15T01:29:52.589Z,16.70
2018-06-15T01:32:20.165Z,16.97
2018-06-15T01:34:47.765Z,17.07
2018-06-15T01:37:16.158Z,16.33
2018-06-15T01:39:43.691Z,16.23
2018-06-15T01:42:11.305Z,16.10
2018-06-15T01:44:38.870Z,21.58
2018-06-15T01:47:06.435Z,17.30
2018-06-15T01:49:34.039Z,16.43
2018-06-15T01:52:01.609Z,16.57
2018-06-15T01:54:29.212Z,16.37
2018-06-15T01:56:56.767Z,16.47
2018-06-15T01:59:24.327Z,17.07
2018-06-15T02:01:51.902Z,15.53
2018-06-15T02:04:19.512Z,16.60
2018-06-15T02:06:47.080Z,15.60
2018-06-15T02:09:14.653Z,17.30
2018-06-15T02:11:43.024Z,16.17
2018-06-15T02:14:11.359Z,16.80
2018-06-15T02:16:38.930Z,16.40
2018-06-15T02:19:06.537Z,16.70
2018-06-15T02:21:34.872Z,16.40
2018-06-15T02:24:02.440Z,16.93
2018-06-15T02:26:30.073Z,15.77
2018-06-15T02:28:57.644Z,20.98
2018-06-15T02:31:25.214Z,16.70
2018-06-15T02:33:52.846Z,15.90
2018-06-15T02:36:21.153Z,16.60
2018-06-15T02:38:48.717Z,15.57
2018-06-15T02:41:16.316Z,16.03
2018-06-15T02:43:43.890Z,16.80
2018-06-15T02:46:12.224Z,16.27
2018-06-15T02:48:39.920Z,16.67
2018-06-15T02:51:07.435Z,20.83
2018-06-15T02:53:35.018Z,17.00
2018-06-15T02:56:02.615Z,16.30
2018-06-15T02:58:30.179Z,16.07
2018-06-15T03:00:57.755Z,17.37
2018-06-15T03:03:25.361Z,15.70
2018-06-15T03:05:52.948Z,17.07
2018-06-15T03:08:20.517Z,15.97
2018-06-15T03:10:48.908Z,16.83
2018-06-15T03:13:16.473Z,15.80
2018-06-15T03:15:44.047Z,15.43
2018-06-15T03:18:11.652Z,16.50
2018-06-15T03:20:39.214Z,15.70
2018-06-15T03:23:06.778Z,16.23
2018-06-15T03:25:34.384Z,15.73
2018-06-15T03:28:01.950Z,19.42
2018-06-15T03:30:29.517Z,15.37
2018-06-15T03:32:57.168Z,15.37
2018-06-15T03:35:24.732Z,15.30
2018-06-15T03:37:52.309Z,15.30
2018-06-15T03:40:19.917Z,15.40
2018-06-15T03:42:47.489Z,14.90
2018-06-15T03:45:15.822Z,20.10
2018-06-15T03:47:43.427Z,16.20
2018-06-15T03:50:11.003Z,15.63
2018-06-15T03:52:38.563Z,15.13
2018-06-15T03:55:06.594Z,14.63
2018-06-15T03:57:34.165Z,15.47
2018-06-15T04:00:01.738Z,14.83
2018-06-15T04:02:29.347Z,18.58
2018-06-15T04:04:56.915Z,15.33
2018-06-15T04:07:24.481Z,15.97
2018-06-15T04:09:52.324Z,16.17
2018-06-15T04:12:19.891Z,19.02
2018-06-15T04:14:47.467Z,15.70
2018-06-15T04:17:15.545Z,14.17
2018-06-15T04:19:43.125Z,15.43
2018-06-15T04:22:10.679Z,14.93
2018-06-15T04:24:38.322Z,15.03
2018-06-15T04:27:06.620Z,14.73
2018-06-15T04:29:34.225Z,14.50
2018-06-15T04:32:01.782Z,13.57
2018-06-15T04:34:30.118Z,17.30
2018-06-15T04:36:57.690Z,14.90
2018-06-15T04:39:25.319Z,13.83
2018-06-15T04:41:52.898Z,17.67
2018-06-15T04:44:20.510Z,14.67
2018-06-15T04:46:48.123Z,14.40
2018-06-15T04:49:15.689Z,14.00
2018-06-15T04:51:43.277Z,14.13
2018-06-15T04:54:10.877Z,14.23
2018-06-15T04:56:38.454Z,13.57
2018-06-15T04:59:06.027Z,17.02
2018-06-15T05:01:34.017Z,14.77
2018-06-15T05:04:01.595Z,14.63
2018-06-15T05:06:29.161Z,14.07
2018-06-15T05:08:56.759Z,13.20
2018-06-15T05:11:24.330Z,12.10
2018-06-15T05:13:51.895Z,11.00
2018-06-15T05:16:19.502Z,11.00
2018-06-15T05:18:47.081Z,10.40
2018-06-15T05:21:14.649Z,12.43
2018-06-15T05:23:43.036Z,10.67
2018-06-15T05:26:11.371Z,9.77
2018-06-15T05:28:38.932Z,9.13
2018-06-15T05:31:06.526Z,8.63
2018-06-15T05:33:34.100Z,9.03
2018-06-15T05:36:02.432Z,8.27
2018-06-15T05:38:30.514Z,8.43
2018-06-15T05:40:58.093Z,10.20
2018-06-15T05:43:25.664Z,10.82
2018-06-15T05:45:53.281Z,9.10
2018-06-15T05:48:20.842Z,8.67
2018-06-15T05:50:48.413Z,9.07
2018-06-15T05:53:16.075Z,8.13
2018-06-15T05:55:43.712Z,7.50
2018-06-15T05:58:11.216Z,8.23
2018-06-15T06:00:38.835Z,8.00
2018-06-15T06:03:06.402Z,7.17
2018-06-15T06:05:33.972Z,7.67
2018-06-15T06:08:01.577Z,6.00
2018-06-15T06:10:29.150Z,6.77
2018-06-15T06:12:57.485Z,7.03
2018-06-15T06:15:25.099Z,6.33
2018-06-15T06:17:52.662Z,6.50
2018-06-15T06:20:20.221Z,6.43
2018-06-15T06:22:47.830Z,6.80
2018-06-15T06:25:15.404Z,7.47
2018-06-15T06:27:43.202Z,7.25
2018-06-15T06:30:11.567Z,5.33
2018-06-15T06:32:39.205Z,6.23
2018-06-15T06:35:06.704Z,6.40
2018-06-15T06:37:34.315Z,6.53
2018-06-15T06:40:01.878Z,5.33
2018-06-15T06:42:29.442Z,6.03
2018-06-15T06:44:57.091Z,5.33
2018-06-15T06:47:24.658Z,4.90
2018-06-15T06:49:52.223Z,4.80
2018-06-15T06:52:20.770Z,4.40
2018-06-15T06:54:48.329Z,3.90
2018-06-15T06:57:15.907Z,4.20
2018-06-15T06:59:43.541Z,5.60
2018-06-15T07:02:11.101Z,4.10
2018-06-15T07:04:38.659Z,4.17
2018-06-15T07:07:07.034Z,3.83
2018-06-15T07:09:35.363Z,4.00
2018-06-15T07:12:03.246Z,3.83
2018-06-15T07:14:31.828Z,4.03
2018-06-15T07:16:59.387Z,4.50
2018-06-15T07:19:26.942Z,4.40
2018-06-15T07:21:54.558Z,3.93
2018-06-15T07:24:22.117Z,3.97
2018-06-15T07:26:50.441Z,4.03
2018-06-15T07:29:18.055Z,3.43
2018-06-15T07:31:46.378Z,3.90
2018-06-15T07:34:13.958Z,4.90
2018-06-15T07:36:41.609Z,3.70
2018-06-15T07:39:09.174Z,3.97
2018-06-15T07:41:36.742Z,3.50
2018-06-15T07:44:04.354Z,3.43
2018-06-15T07:46:32.688Z,2.90
2018-06-15T07:49:00.243Z,2.20
2018-06-15T07:51:28.316Z,3.20
2018-06-15T07:53:55.884Z,2.80
2018-06-15T07:56:23.443Z,2.83
2018-06-15T07:58:51.764Z,2.93
2018-06-15T08:01:19.332Z,3.40
2018-06-15T08:03:46.883Z,3.30
2018-06-15T08:06:15.257Z,3.20
2018-06-15T08:08:42.814Z,3.43
2018-06-15T08:11:11.142Z,3.27
2018-06-15T08:13:38.754Z,3.50
2018-06-15T08:16:06.323Z,3.17
2018-06-15T08:18:33.874Z,3.30
2018-06-15T08:21:02.224Z,2.90
2018-06-15T08:23:29.773Z,3.43
2018-06-15T08:25:57.327Z,3.20
2018-06-15T08:28:24.956Z,3.10
2018-06-15T08:30:52.510Z,3.00
2018-06-15T08:33:20.835Z,3.20
2018-06-15T08:35:49.253Z,3.27
2018-06-15T08:38:16.813Z,3.10
2018-06-15T08:40:44.956Z,3.13
2018-06-15T08:43:12.554Z,3.37
2018-06-15T08:45:40.107Z,3.33
2018-06-15T08:48:07.656Z,3.23
2018-06-15T08:50:35.713Z,2.87
2018-06-15T08:53:03.581Z,2.97
2018-06-15T08:55:31.137Z,3.20
2018-06-15T08:57:59.144Z,2.70
2018-06-15T09:00:26.700Z,2.60
2018-06-15T09:02:54.267Z,3.20
2018-06-15T09:05:21.870Z,2.70
2018-06-15T09:07:49.436Z,2.87
2018-06-15T09:10:16.991Z,2.50
2018-06-15T09:12:44.593Z,2.37
2018-06-15T09:15:12.201Z,2.37
2018-06-15T09:17:40.523Z,2.43
2018-06-15T09:20:08.167Z,2.13
2018-06-15T09:22:35.722Z,2.10
2018-06-15T09:25:03.277Z,2.43
2018-06-15T09:27:30.880Z,2.20
2018-06-15T09:29:58.439Z,2.20
2018-06-15T09:32:25.991Z,2.23
2018-06-15T09:34:53.596Z,2.00
2018-06-15T09:37:21.153Z,2.57
2018-06-15T09:39:49.481Z,1.80
2018-06-15T09:42:17.566Z,2.53
2018-06-15T09:44:45.129Z,2.20
2018-06-15T09:47:12.685Z,2.00
2018-06-15T09:49:40.764Z,1.87
2018-06-15T09:52:08.328Z,2.00
2018-06-15T09:54:35.886Z,1.97
2018-06-15T09:57:03.484Z,1.60
2018-06-15T09:59:31.807Z,2.30
2018-06-15T10:01:59.370Z,2.17
2018-06-15T10:04:27.901Z,2.13
2018-06-15T10:09:23.023Z,2.13
2018-06-15T10:11:51.062Z,2.17
2018-06-15T10:14:18.612Z,2.10
2018-06-15T10:16:46.229Z,1.67
2018-06-15T10:19:13.771Z,1.77
2018-06-15T10:21:41.331Z,2.00
2018-06-15T10:24:08.881Z,2.20
2018-06-15T10:26:36.520Z,2.15
2018-06-15T10:29:04.071Z,2.00
2018-06-15T10:31:31.623Z,1.67
2018-06-15T10:33:59.259Z,1.90
2018-06-15T10:36:27.586Z,1.67
2018-06-15T10:38:55.141Z,1.53
2018-06-15T10:41:22.788Z,1.90
2018-06-15T10:43:50.340Z,1.80
2018-06-15T10:46:17.978Z,1.20
2018-06-15T10:48:46.355Z,1.67
2018-06-15T10:51:13.910Z,1.73
2018-06-15T10:53:41.465Z,1.50
2018-06-15T10:56:09.107Z,1.80
2018-06-15T10:58:36.676Z,1.53
2018-06-15T11:01:04.225Z,1.50
2018-06-15T11:03:31.830Z,1.10
2018-06-15T11:06:00.166Z,1.37
2018-06-15T11:08:27.725Z,1.10
2018-06-15T11:10:55.350Z,1.60
2018-06-15T11:13:23.676Z,1.90
2018-06-15T11:15:51.221Z,1.70
2018-06-15T11:18:18.827Z,1.40
2018-06-15T11:20:46.381Z,1.63
2018-06-15T11:23:13.937Z,1.70
2018-06-15T11:25:41.535Z,1.77
2018-06-15T11:28:09.089Z,1.75
2018-06-15T11:30:37.427Z,1.60
2018-06-15T11:33:05.028Z,1.90
2018-06-15T11:35:33.354Z,1.77
2018-06-15T11:38:00.920Z,1.97
2018-06-15T11:40:29.515Z,2.30
2018-06-15T11:42:57.069Z,2.27
2018-06-15T11:45:24.629Z,2.47
2018-06-15T11:47:52.231Z,2.30
2018-06-15T11:50:19.794Z,2.03
2018-06-15T11:52:48.113Z,1.93
2018-06-15T11:55:15.752Z,1.90
2018-06-15T11:57:43.307Z,1.70
2018-06-15T12:00:10.861Z,1.47
2018-06-15T12:02:39.232Z,1.80
2018-06-15T12:05:07.557Z,1.53
2018-06-15T12:07:35.105Z,1.33
2018-06-15T12:10:02.709Z,1.73
2018-06-15T12:12:30.261Z,1.50
2018-06-15T12:14:57.816Z,1.30
2018-06-15T12:17:25.446Z,1.40
2018-06-15T12:19:53.007Z,1.37
2018-06-15T12:22:20.565Z,2.10
2018-06-15T12:24:48.200Z,2.40
2018-06-15T12:27:15.756Z,2.05
2018-06-15T12:29:43.303Z,1.87
2018-06-15T12:32:10.919Z,2.00
2018-06-15T12:34:38.917Z,1.77
2018-06-15T12:37:06.473Z,1.67
2018-06-15T12:39:34.074Z,2.00
2018-06-15T12:42:01.628Z,1.93
2018-06-15T12:44:29.197Z,1.63
2018-06-15T12:46:56.804Z,2.28
2018-06-15T12:49:24.365Z,1.90
2018-06-15T12:51:51.916Z,1.23
2018-06-15T12:54:20.940Z,1.40
2018-06-15T12:56:48.808Z,1.60
2018-06-15T12:59:16.401Z,1.30
2018-06-15T13:01:44.402Z,1.50
2018-06-15T13:04:11.955Z,1.70
2018-06-15T13:06:40.286Z,1.30
2018-06-15T13:09:07.886Z,1.30
2018-06-15T13:11:35.443Z,1.70
2018-06-15T13:14:03.759Z,1.50
2018-06-15T13:16:31.902Z,1.50
2018-06-15T13:18:59.417Z,1.60
2018-06-15T13:21:26.977Z,1.63
2018-06-15T13:23:54.589Z,1.30
2018-06-15T13:26:22.911Z,1.50
2018-06-15T13:28:50.480Z,1.60
2018-06-15T13:31:18.452Z,1.37
2018-06-15T13:36:13.578Z,1.53
2018-06-15T13:38:41.165Z,1.70
2018-06-15T13:41:08.722Z,1.30
2018-06-15T13:43:36.284Z,1.80
2018-06-15T13:46:03.893Z,1.63
2018-06-15T13:48:31.452Z,1.87
2018-06-15T13:50:59.016Z,1.73
2018-06-15T13:53:26.632Z,1.77
2018-06-15T13:55:54.189Z,1.60
2018-06-15T13:58:21.745Z,1.93
2018-06-15T14:00:49.386Z,2.00
2018-06-15T14:03:16.942Z,2.10
2018-06-15T14:05:44.502Z,1.63
2018-06-15T14:08:12.299Z,1.80
2018-06-15T14:10:39.853Z,1.70
2018-06-15T14:13:07.402Z,1.70
2018-06-15T14:15:35.010Z,1.60
2018-06-15T14:18:02.570Z,1.67
2018-06-15T14:20:30.885Z,2.00
2018-06-15T14:22:58.874Z,1.50
2018-06-15T14:25:26.439Z,1.97
2018-06-15T14:27:53.998Z,1.90
2018-06-15T14:30:21.795Z,1.92
2018-06-15T14:32:49.356Z,1.85
2018-06-15T14:35:16.898Z,1.70
2018-06-15T14:37:44.534Z,1.80
2018-06-15T14:40:12.101Z,2.00
2018-06-15T14:42:39.655Z,2.07
2018-06-15T14:45:07.326Z,1.50
2018-06-15T14:47:34.857Z,1.73
2018-06-15T14:50:02.412Z,1.70
2018-06-15T14:52:30.090Z,1.50
2018-06-15T14:54:57.650Z,1.80
2018-06-15T14:57:25.203Z,1.70
2018-06-15T14:59:52.821Z,1.70
2018-06-15T15:02:23.099Z,1.30
2018-06-15T15:04:50.702Z,1.55
2018-06-15T15:07:18.259Z,1.67
2018-06-15T15:09:45.823Z,1.57
2018-06-15T15:12:13.412Z,1.90
2018-06-15T15:14:41.791Z,1.77
2018-06-15T15:17:10.110Z,1.43
2018-06-15T15:19:37.663Z,1.67
2018-06-15T15:22:06.272Z,2.13
2018-06-15T15:24:33.839Z,1.77
2018-06-15T15:27:01.403Z,1.67
2018-06-15T15:29:29.007Z,1.93
2018-06-15T15:31:56.560Z,1.50
2018-06-15T15:34:24.118Z,1.63
2018-06-15T15:36:52.530Z,1.60
2018-06-15T15:39:20.091Z,1.70
2018-06-15T15:41:47.646Z,1.80
2018-06-15T15:44:15.281Z,2.00
2018-06-15T15:46:42.845Z,1.70
2018-06-15T15:49:11.164Z,1.77
2018-06-15T15:51:38.801Z,2.03
2018-06-15T15:54:06.360Z,1.40
2018-06-15T15:56:33.910Z,1.50
2018-06-15T15:59:02.276Z,1.87
2018-06-15T16:01:29.833Z,1.43
2018-06-15T16:03:57.384Z,1.60
2018-06-15T16:06:24.999Z,1.60
2018-06-15T16:08:52.546Z,1.73
2018-06-15T16:11:20.870Z,1.37
2018-06-15T16:13:48.486Z,1.80
2018-06-15T16:16:16.811Z,1.47
2018-06-15T16:18:44.370Z,1.80
2018-06-15T16:21:12.002Z,2.00
2018-06-15T16:23:39.588Z,1.80
2018-06-15T16:26:07.139Z,1.50
2018-06-15T16:28:34.767Z,1.30
2018-06-15T16:31:03.109Z,1.70
2018-06-15T16:33:30.660Z,1.40
2018-06-15T16:35:58.660Z,1.40
2018-06-15T16:38:26.218Z,1.50
2018-06-15T16:40:53.764Z,1.27
2018-06-15T16:43:21.419Z,1.57
2018-06-15T16:45:49.682Z,1.87
2018-06-15T16:48:17.241Z,1.47
2018-06-15T16:50:44.842Z,1.60
2018-06-15T16:53:12.394Z,1.60
2018-06-15T16:55:39.948Z,1.70
2018-06-15T16:58:08.046Z,1.60
2018-06-15T17:00:35.568Z,1.50
2018-06-15T17:03:03.123Z,1.70
2018-06-15T17:05:30.730Z,1.50
2018-06-15T17:07:58.291Z,1.50
2018-06-15T17:10:25.843Z,1.50
2018-06-15T17:12:53.480Z,1.70
2018-06-15T17:15:21.040Z,1.70
2018-06-15T17:17:48.600Z,1.87
2018-06-15T17:20:16.628Z,1.70
2018-06-15T17:22:44.182Z,1.90
2018-06-15T17:25:12.496Z,1.70
2018-06-15T17:27:40.101Z,1.73
2018-06-15T17:30:07.652Z,1.60
2018-06-15T17:32:35.204Z,1.70
2018-06-15T17:35:02.821Z,1.70
2018-06-15T17:37:30.404Z,1.93
2018-06-15T17:39:58.697Z,1.67
2018-06-15T17:42:26.969Z,1.80
2018-06-15T17:44:54.516Z,1.63
2018-06-15T17:47:22.067Z,1.90
2018-06-15T17:49:50.197Z,1.90
2018-06-15T17:52:17.756Z,2.30
2018-06-15T17:54:45.307Z,1.97
2018-06-15T17:57:12.911Z,2.20
2018-06-15T17:59:41.301Z,2.40
2018-06-15T18:02:08.805Z,2.13
2018-06-15T18:04:36.444Z,1.77
2018-06-15T18:07:04.001Z,1.80
2018-06-15T18:09:31.551Z,1.80
2018-06-15T18:11:59.154Z,2.00
2018-06-15T18:14:26.703Z,1.90
2018-06-15T18:16:54.254Z,2.30
2018-06-15T18:19:21.879Z,1.93
2018-06-15T18:21:50.206Z,2.20
2018-06-15T18:24:17.766Z,2.23
2018-06-15T18:26:45.936Z,2.13
2018-06-15T18:29:13.490Z,2.50
2018-06-15T18:31:41.061Z,2.33
2018-06-15T18:34:08.664Z,2.40
2018-06-15T18:36:36.982Z,2.37
2018-06-15T18:39:04.536Z,2.37
2018-06-15T18:41:32.538Z,2.37
2018-06-15T18:44:00.096Z,2.20
2018-06-15T18:46:27.653Z,2.40
2018-06-15T18:48:55.255Z,2.27
2018-06-15T18:51:22.830Z,1.90
2018-06-15T18:53:50.388Z,2.10
2018-06-15T18:56:18.028Z,2.53
2018-06-15T18:58:45.589Z,2.50
2018-06-15T19:01:13.143Z,3.10
2018-06-15T19:03:40.746Z,2.93
2018-06-15T19:06:09.067Z,2.90
2018-06-15T19:08:36.627Z,2.87
2018-06-15T19:11:04.822Z,3.03
2018-06-15T19:13:32.385Z,3.33
2018-06-15T19:15:59.934Z,2.63
2018-06-15T19:18:27.535Z,2.77
2018-06-15T19:20:55.856Z,2.93
2018-06-15T19:23:23.408Z,2.93
2018-06-15T19:25:51.048Z,2.97
2018-06-15T19:28:18.604Z,3.10
2018-06-15T19:30:46.928Z,3.03
2018-06-15T19:33:15.404Z,3.27
2018-06-15T19:35:42.955Z,3.20
2018-06-15T19:38:10.507Z,2.87
2018-06-15T19:40:38.508Z,2.70
2018-06-15T19:43:06.062Z,3.00
2018-06-15T19:45:33.621Z,3.20
2018-06-15T19:48:01.266Z,3.60
2018-06-15T19:50:28.816Z,3.40
2018-06-15T19:52:56.371Z,3.87
2018-06-15T19:55:24.684Z,3.60
2018-06-15T19:57:52.654Z,3.07
2018-06-15T20:00:20.213Z,2.97
2018-06-15T20:02:48.777Z,2.97
2018-06-15T20:05:16.400Z,3.50
2018-06-15T20:07:47.001Z,3.40
2018-06-15T20:10:14.744Z,3.13
2018-06-15T20:12:42.302Z,3.43
2018-06-15T20:15:09.854Z,3.87
2018-06-15T20:17:37.464Z,3.47
2018-06-15T20:20:05.014Z,2.83
2018-06-15T20:22:32.573Z,2.90
2018-06-15T20:25:00.183Z,3.50
2018-06-15T20:27:27.740Z,3.57
2018-06-15T20:29:55.293Z,4.10
2018-06-15T20:32:24.589Z,4.00
2018-06-15T20:34:52.143Z,3.40
2018-06-15T20:37:19.704Z,3.50
2018-06-15T20:39:47.751Z,2.63
2018-06-15T20:42:15.324Z,3.42
2018-06-15T20:44:42.880Z,3.43
2018-06-15T20:47:10.523Z,3.20
2018-06-15T20:49:38.079Z,3.37
2018-06-15T20:52:05.637Z,3.60
2018-06-15T20:54:33.678Z,4.28
2018-06-15T20:57:01.247Z,3.47
2018-06-15T20:59:29.975Z,3.10
2018-06-15T21:01:57.583Z,3.17
2018-06-15T21:04:25.145Z,3.40
2018-06-15T21:06:52.704Z,3.77
2018-06-15T21:09:20.359Z,3.57
2018-06-15T21:11:47.907Z,4.10
2018-06-15T21:14:15.461Z,3.50
2018-06-15T21:16:43.101Z,4.50
2018-06-15T21:19:10.658Z,3.70
2018-06-15T21:21:38.219Z,4.17
2018-06-15T21:24:05.828Z,4.03
2018-06-15T21:26:33.390Z,3.60
2018-06-15T21:29:00.947Z,4.20
2018-06-15T21:31:28.585Z,4.10
2018-06-15T21:33:56.651Z,3.93
2018-06-15T21:36:24.201Z,4.80
2018-06-15T21:38:52.158Z,4.50
2018-06-15T21:41:19.713Z,3.83
2018-06-15T21:43:47.274Z,4.70
2018-06-15T21:46:14.906Z,4.20
2018-06-15T21:48:43.233Z,4.43
2018-06-15T21:51:10.796Z,5.03
2018-06-15T21:53:38.400Z,4.87
2018-06-15T21:56:06.011Z,5.50
2018-06-15T21:58:33.568Z,5.03
2018-06-15T22:01:01.194Z,4.97
2018-06-15T22:03:29.523Z,5.27
2018-06-15T22:05:57.098Z,5.27
2018-06-15T22:08:24.705Z,5.40
2018-06-15T22:10:53.240Z,5.53
2018-06-15T22:13:20.811Z,5.57
2018-06-15T22:15:48.430Z,5.90
2018-06-15T22:18:15.983Z,5.90
2018-06-15T22:20:43.547Z,5.50
2018-06-15T22:23:11.156Z,5.17
2018-06-15T22:25:38.712Z,4.70
2018-06-15T22:28:06.273Z,4.80
2018-06-15T22:30:34.340Z,4.97
2018-06-15T22:33:01.913Z,5.65
2018-06-15T22:35:29.468Z,4.57
2018-06-15T22:37:57.739Z,5.13
2018-06-15T22:40:25.286Z,4.23
2018-06-15T22:42:52.841Z,4.57
2018-06-15T22:45:21.039Z,4.33
2018-06-15T22:47:48.594Z,3.80
2018-06-15T22:50:16.154Z,4.43
2018-06-15T22:52:43.740Z,4.43
2018-06-15T22:55:11.296Z,4.33
2018-06-15T22:57:38.855Z,4.20
2018-06-15T23:00:06.866Z,3.93
2018-06-15T23:02:35.197Z,4.33
2018-06-15T23:05:02.757Z,4.20
2018-06-15T23:07:30.366Z,4.10
2018-06-15T23:09:58.687Z,4.03
2018-06-15T23:12:26.237Z,4.13
2018-06-15T23:14:53.828Z,4.47
2018-06-15T23:17:21.388Z,5.03
2018-06-15T23:19:48.945Z,5.40
2018-06-15T23:22:16.560Z,5.50
2018-06-15T23:24:44.120Z,5.72
2018-06-15T23:27:11.679Z,4.97
2018-06-15T23:29:39.288Z,5.03
2018-06-15T23:32:06.854Z,4.27
2018-06-15T23:34:34.418Z,4.23
2018-06-15T23:37:02.003Z,4.47
2018-06-15T23:39:29.564Z,4.93
2018-06-15T23:41:57.124Z,4.30
2018-06-15T23:44:24.765Z,4.50
2018-06-15T23:46:52.341Z,4.63
2018-06-15T23:49:19.909Z,5.10
2018-06-15T23:51:47.948Z,4.13
2018-06-15T23:54:15.504Z,4.00
2018-06-15T23:56:43.057Z,4.30
2018-06-15T23:59:10.651Z,4.40
